sensor_id;sensor_type;location;lat;lon;timestamp;P1;durP1;ratioP1;P2;durP2;ratioP2
30000;SDS011;16845;48.670;9.000;2023-05-09T00:00:37;36.38;;;26.83;;
30000;SDS011;16845;48.670;9.000;2023-05-09T00:03:03;40.78;;;25.45;;
30000;SDS011;16845;48.670;9.000;2023-05-09T00:05:31;38.70;;;27.08;;
30000;SDS011;16845;48.670;9.000;2023-05-09T00:07:58;37.72;;;25.08;;
30000;SDS011;16845;48.670;9.000;2023-05-09T00:10:25;39.58;;;28.80;;
30000;SDS011;16845;48.670;9.000;2023-05-09T00:15:18;46.00;;;26.73;;
30000;SDS011;16845;48.670;9.000;2023-05-09T00:17:44;35.22;;;25.00;;
30000;SDS011;16845;48.670;9.000;2023-05-09T00:20:11;33.97;;;23.40;;
30000;SDS011;16845;48.670;9.000;2023-05-09T00:22:39;43.97;;;26.50;;
30000;SDS011;16845;48.670;9.000;2023-05-09T00:25:06;36.58;;;25.65;;
30000;SDS011;16845;48.670;9.000;2023-05-09T00:27:34;39.97;;;27.45;;
30000;SDS011;16845;48.670;9.000;2023-05-09T00:30:00;42.08;;;27.25;;
30000;SDS011;16845;48.670;9.000;2023-05-09T00:32:27;38.95;;;28.17;;
30000;SDS011;16845;48.670;9.000;2023-05-09T00:34:53;37.00;;;26.38;;
30000;SDS011;16845;48.670;9.000;2023-05-09T00:37:19;35.00;;;25.35;;
30000;SDS011;16845;48.670;9.000;2023-05-09T00:39:47;44.65;;;29.58;;
30000;SDS011;16845;48.670;9.000;2023-05-09T00:42:14;34.90;;;25.45;;
30000;SDS011;16845;48.670;9.000;2023-05-09T00:44:40;36.72;;;26.15;;
30000;SDS011;16845;48.670;9.000;2023-05-09T00:47:07;38.37;;;25.23;;
30000;SDS011;16845;48.670;9.000;2023-05-09T00:49:33;31.52;;;22.63;;
30000;SDS011;16845;48.670;9.000;2023-05-09T00:52:01;36.58;;;26.02;;
30000;SDS011;16845;48.670;9.000;2023-05-09T00:54:28;42.67;;;28.30;;
30000;SDS011;16845;48.670;9.000;2023-05-09T00:56:56;38.38;;;26.92;;
30000;SDS011;16845;48.670;9.000;2023-05-09T00:59:22;37.65;;;26.40;;
30000;SDS011;16845;48.670;9.000;2023-05-09T01:01:49;33.72;;;24.13;;
30000;SDS011;16845;48.670;9.000;2023-05-09T01:04:16;39.42;;;26.25;;
30000;SDS011;16845;48.670;9.000;2023-05-09T01:06:44;37.50;;;26.92;;
30000;SDS011;16845;48.670;9.000;2023-05-09T01:09:18;39.35;;;27.60;;
30000;SDS011;16845;48.670;9.000;2023-05-09T01:11:57;36.22;;;25.90;;
30000;SDS011;16845;48.670;9.000;2023-05-09T01:14:29;37.25;;;25.85;;
30000;SDS011;16845;48.670;9.000;2023-05-09T01:17:04;46.67;;;26.42;;
30000;SDS011;16845;48.670;9.000;2023-05-09T01:19:42;41.72;;;25.80;;
30000;SDS011;16845;48.670;9.000;2023-05-09T01:22:19;36.75;;;25.50;;
30000;SDS011;16845;48.670;9.000;2023-05-09T01:25:00;33.70;;;23.67;;
30000;SDS011;16845;48.670;9.000;2023-05-09T01:28:02;32.85;;;24.95;;
30000;SDS011;16845;48.670;9.000;2023-05-09T01:30:39;33.50;;;24.40;;
30000;SDS011;16845;48.670;9.000;2023-05-09T01:33:09;34.33;;;22.52;;
30000;SDS011;16845;48.670;9.000;2023-05-09T01:35:38;26.90;;;20.90;;
30000;SDS011;16845;48.670;9.000;2023-05-09T01:38:10;37.30;;;23.45;;
30000;SDS011;16845;48.670;9.000;2023-05-09T01:40:38;38.45;;;22.83;;
30000;SDS011;16845;48.670;9.000;2023-05-09T01:43:07;37.35;;;23.98;;
30000;SDS011;16845;48.670;9.000;2023-05-09T01:45:35;37.00;;;24.35;;
30000;SDS011;16845;48.670;9.000;2023-05-09T01:48:04;25.45;;;20.90;;
30000;SDS011;16845;48.670;9.000;2023-05-09T01:50:32;29.17;;;22.05;;
30000;SDS011;16845;48.670;9.000;2023-05-09T01:53:01;28.13;;;20.08;;
30000;SDS011;16845;48.670;9.000;2023-05-09T01:55:31;27.27;;;20.48;;
30000;SDS011;16845;48.670;9.000;2023-05-09T01:57:59;32.35;;;22.70;;
30000;SDS011;16845;48.670;9.000;2023-05-09T02:00:28;37.92;;;23.95;;
30000;SDS011;16845;48.670;9.000;2023-05-09T02:02:56;35.20;;;24.30;;
30000;SDS011;16845;48.670;9.000;2023-05-09T02:05:25;40.58;;;28.17;;
30000;SDS011;16845;48.670;9.000;2023-05-09T02:07:53;37.45;;;27.67;;
30000;SDS011;16845;48.670;9.000;2023-05-09T02:10:21;39.67;;;26.85;;
30000;SDS011;16845;48.670;9.000;2023-05-09T02:12:48;36.10;;;24.77;;
30000;SDS011;16845;48.670;9.000;2023-05-09T02:15:15;46.30;;;28.10;;
30000;SDS011;16845;48.670;9.000;2023-05-09T02:17:41;42.70;;;28.37;;
30000;SDS011;16845;48.670;9.000;2023-05-09T02:20:08;37.85;;;24.67;;
30000;SDS011;16845;48.670;9.000;2023-05-09T02:22:37;35.92;;;25.08;;
30000;SDS011;16845;48.670;9.000;2023-05-09T02:25:05;36.80;;;24.67;;
30000;SDS011;16845;48.670;9.000;2023-05-09T02:27:33;32.53;;;23.80;;
30000;SDS011;16845;48.670;9.000;2023-05-09T02:30:00;41.40;;;25.20;;
30000;SDS011;16845;48.670;9.000;2023-05-09T02:32:30;39.60;;;23.45;;
30000;SDS011;16845;48.670;9.000;2023-05-09T02:34:59;36.63;;;25.30;;
30000;SDS011;16845;48.670;9.000;2023-05-09T02:37:27;39.85;;;27.17;;
30000;SDS011;16845;48.670;9.000;2023-05-09T02:39:55;40.05;;;26.75;;
30000;SDS011;16845;48.670;9.000;2023-05-09T02:42:22;42.35;;;26.23;;
30000;SDS011;16845;48.670;9.000;2023-05-09T02:44:50;36.97;;;24.05;;
30000;SDS011;16845;48.670;9.000;2023-05-09T02:47:17;36.80;;;25.10;;
30000;SDS011;16845;48.670;9.000;2023-05-09T02:49:43;42.80;;;26.83;;
30000;SDS011;16845;48.670;9.000;2023-05-09T02:52:10;39.20;;;26.58;;
30000;SDS011;16845;48.670;9.000;2023-05-09T02:54:37;34.28;;;23.63;;
30000;SDS011;16845;48.670;9.000;2023-05-09T02:57:04;42.20;;;27.35;;
30000;SDS011;16845;48.670;9.000;2023-05-09T02:59:31;38.08;;;25.92;;
30000;SDS011;16845;48.670;9.000;2023-05-09T03:01:57;36.33;;;25.17;;
30000;SDS011;16845;48.670;9.000;2023-05-09T03:04:24;39.13;;;26.73;;
30000;SDS011;16845;48.670;9.000;2023-05-09T03:06:50;42.03;;;27.55;;
30000;SDS011;16845;48.670;9.000;2023-05-09T03:09:17;29.50;;;20.90;;
30000;SDS011;16845;48.670;9.000;2023-05-09T03:11:43;35.55;;;22.30;;
30000;SDS011;16845;48.670;9.000;2023-05-09T03:14:11;30.92;;;22.25;;
30000;SDS011;16845;48.670;9.000;2023-05-09T03:16:38;32.40;;;21.33;;
30000;SDS011;16845;48.670;9.000;2023-05-09T03:19:04;32.72;;;22.10;;
30000;SDS011;16845;48.670;9.000;2023-05-09T03:21:31;29.58;;;18.85;;
30000;SDS011;16845;48.670;9.000;2023-05-09T03:23:57;27.60;;;20.17;;
30000;SDS011;16845;48.670;9.000;2023-05-09T03:26:24;25.88;;;18.42;;
30000;SDS011;16845;48.670;9.000;2023-05-09T03:28:50;30.02;;;20.20;;
30000;SDS011;16845;48.670;9.000;2023-05-09T03:31:18;24.85;;;18.13;;
30000;SDS011;16845;48.670;9.000;2023-05-09T03:33:45;25.92;;;18.83;;
30000;SDS011;16845;48.670;9.000;2023-05-09T03:36:11;31.02;;;20.60;;
30000;SDS011;16845;48.670;9.000;2023-05-09T03:38:37;35.15;;;19.58;;
30000;SDS011;16845;48.670;9.000;2023-05-09T03:41:04;27.10;;;17.55;;
30000;SDS011;16845;48.670;9.000;2023-05-09T03:43:31;27.40;;;18.80;;
30000;SDS011;16845;48.670;9.000;2023-05-09T03:45:57;28.67;;;17.92;;
30000;SDS011;16845;48.670;9.000;2023-05-09T03:48:25;26.10;;;18.17;;
30000;SDS011;16845;48.670;9.000;2023-05-09T03:50:51;23.83;;;17.48;;
30000;SDS011;16845;48.670;9.000;2023-05-09T03:53:18;25.92;;;17.92;;
30000;SDS011;16845;48.670;9.000;2023-05-09T03:55:44;21.42;;;15.20;;
30000;SDS011;16845;48.670;9.000;2023-05-09T03:58:11;25.10;;;15.68;;
30000;SDS011;16845;48.670;9.000;2023-05-09T04:00:37;19.30;;;14.13;;
30000;SDS011;16845;48.670;9.000;2023-05-09T04:03:05;22.70;;;15.60;;
30000;SDS011;16845;48.670;9.000;2023-05-09T04:05:33;22.40;;;15.75;;
30000;SDS011;16845;48.670;9.000;2023-05-09T04:07:59;25.85;;;13.70;;
30000;SDS011;16845;48.670;9.000;2023-05-09T04:10:26;45.07;;;14.00;;
30000;SDS011;16845;48.670;9.000;2023-05-09T04:12:52;23.67;;;12.45;;
30000;SDS011;16845;48.670;9.000;2023-05-09T04:15:19;37.00;;;12.37;;
30000;SDS011;16845;48.670;9.000;2023-05-09T04:17:45;110.88;;;14.45;;
30000;SDS011;16845;48.670;9.000;2023-05-09T04:20:12;95.78;;;15.85;;
30000;SDS011;16845;48.670;9.000;2023-05-09T04:22:40;51.47;;;13.52;;
30000;SDS011;16845;48.670;9.000;2023-05-09T04:25:06;22.35;;;12.52;;
30000;SDS011;16845;48.670;9.000;2023-05-09T04:27:33;37.40;;;12.67;;
30000;SDS011;16845;48.670;9.000;2023-05-09T04:29:59;29.02;;;12.65;;
30000;SDS011;16845;48.670;9.000;2023-05-09T04:32:26;32.15;;;11.98;;
30000;SDS011;16845;48.670;9.000;2023-05-09T04:34:52;39.90;;;13.43;;
30000;SDS011;16845;48.670;9.000;2023-05-09T04:37:20;53.17;;;15.02;;
30000;SDS011;16845;48.670;9.000;2023-05-09T04:39:47;30.67;;;14.15;;
30000;SDS011;16845;48.670;9.000;2023-05-09T04:42:14;21.33;;;11.95;;
30000;SDS011;16845;48.670;9.000;2023-05-09T04:44:40;20.52;;;12.05;;
30000;SDS011;16845;48.670;9.000;2023-05-09T04:47:07;32.10;;;12.88;;
30000;SDS011;16845;48.670;9.000;2023-05-09T04:49:33;49.08;;;12.90;;
30000;SDS011;16845;48.670;9.000;2023-05-09T04:52:00;25.83;;;11.60;;
30000;SDS011;16845;48.670;9.000;2023-05-09T04:54:26;41.08;;;11.77;;
30000;SDS011;16845;48.670;9.000;2023-05-09T04:56:54;14.55;;;10.85;;
30000;SDS011;16845;48.670;9.000;2023-05-09T04:59:28;87.28;;;13.85;;
30000;SDS011;16845;48.670;9.000;2023-05-09T05:01:55;15.60;;;10.73;;
30000;SDS011;16845;48.670;9.000;2023-05-09T05:04:21;25.60;;;12.05;;
30000;SDS011;16845;48.670;9.000;2023-05-09T05:06:48;13.23;;;10.55;;
30000;SDS011;16845;48.670;9.000;2023-05-09T05:09:14;25.55;;;13.55;;
30000;SDS011;16845;48.670;9.000;2023-05-09T05:11:41;22.90;;;12.23;;
30000;SDS011;16845;48.670;9.000;2023-05-09T05:14:25;18.13;;;11.00;;
30000;SDS011;16845;48.670;9.000;2023-05-09T05:16:51;24.25;;;12.90;;
30000;SDS011;16845;48.670;9.000;2023-05-09T05:19:18;26.27;;;12.93;;
30000;SDS011;16845;48.670;9.000;2023-05-09T05:21:44;28.98;;;12.95;;
30000;SDS011;16845;48.670;9.000;2023-05-09T05:24:11;34.17;;;12.80;;
30000;SDS011;16845;48.670;9.000;2023-05-09T05:26:37;17.08;;;12.60;;
30000;SDS011;16845;48.670;9.000;2023-05-09T05:29:04;25.33;;;13.95;;
30000;SDS011;16845;48.670;9.000;2023-05-09T05:31:31;18.73;;;13.23;;
30000;SDS011;16845;48.670;9.000;2023-05-09T05:33:58;27.23;;;13.93;;
30000;SDS011;16845;48.670;9.000;2023-05-09T05:36:24;15.15;;;12.25;;
30000;SDS011;16845;48.670;9.000;2023-05-09T05:38:51;17.25;;;11.73;;
30000;SDS011;16845;48.670;9.000;2023-05-09T05:41:17;13.27;;;11.40;;
30000;SDS011;16845;48.670;9.000;2023-05-09T05:43:44;15.52;;;12.55;;
30000;SDS011;16845;48.670;9.000;2023-05-09T05:46:10;12.07;;;10.27;;
30000;SDS011;16845;48.670;9.000;2023-05-09T05:48:38;13.18;;;10.45;;
30000;SDS011;16845;48.670;9.000;2023-05-09T05:51:05;15.68;;;10.57;;
30000;SDS011;16845;48.670;9.000;2023-05-09T05:53:31;12.95;;;10.35;;
30000;SDS011;16845;48.670;9.000;2023-05-09T05:55:58;13.60;;;11.17;;
30000;SDS011;16845;48.670;9.000;2023-05-09T05:58:24;14.43;;;11.50;;
30000;SDS011;16845;48.670;9.000;2023-05-09T06:00:51;13.23;;;11.48;;
30000;SDS011;16845;48.670;9.000;2023-05-09T06:03:17;12.48;;;10.50;;
30000;SDS011;16845;48.670;9.000;2023-05-09T06:05:45;15.93;;;10.45;;
30000;SDS011;16845;48.670;9.000;2023-05-09T06:08:12;18.85;;;10.90;;
30000;SDS011;16845;48.670;9.000;2023-05-09T06:10:39;11.40;;;10.15;;
30000;SDS011;16845;48.670;9.000;2023-05-09T06:13:05;12.15;;;10.00;;
30000;SDS011;16845;48.670;9.000;2023-05-09T06:15:32;11.50;;;10.25;;
30000;SDS011;16845;48.670;9.000;2023-05-09T06:17:58;12.02;;;10.13;;
30000;SDS011;16845;48.670;9.000;2023-05-09T06:20:25;12.70;;;10.48;;
30000;SDS011;16845;48.670;9.000;2023-05-09T06:22:53;12.50;;;10.88;;
30000;SDS011;16845;48.670;9.000;2023-05-09T06:25:19;14.80;;;11.25;;
30000;SDS011;16845;48.670;9.000;2023-05-09T06:27:45;14.18;;;10.57;;
30000;SDS011;16845;48.670;9.000;2023-05-09T06:30:12;11.43;;;9.75;;
30000;SDS011;16845;48.670;9.000;2023-05-09T06:32:51;14.52;;;10.25;;
30000;SDS011;16845;48.670;9.000;2023-05-09T06:35:17;12.10;;;9.30;;
30000;SDS011;16845;48.670;9.000;2023-05-09T06:37:44;10.95;;;8.88;;
30000;SDS011;16845;48.670;9.000;2023-05-09T06:40:15;13.23;;;8.63;;
30000;SDS011;16845;48.670;9.000;2023-05-09T06:42:41;7.97;;;7.18;;
30000;SDS011;16845;48.670;9.000;2023-05-09T06:45:08;11.63;;;7.73;;
30000;SDS011;16845;48.670;9.000;2023-05-09T06:47:36;11.50;;;8.75;;
30000;SDS011;16845;48.670;9.000;2023-05-09T06:50:02;13.33;;;10.23;;
30000;SDS011;16845;48.670;9.000;2023-05-09T06:52:29;13.27;;;9.65;;
30000;SDS011;16845;48.670;9.000;2023-05-09T06:54:55;10.85;;;8.68;;
30000;SDS011;16845;48.670;9.000;2023-05-09T06:57:23;12.23;;;9.27;;
30000;SDS011;16845;48.670;9.000;2023-05-09T06:59:50;11.38;;;8.50;;
30000;SDS011;16845;48.670;9.000;2023-05-09T07:02:16;11.15;;;8.52;;
30000;SDS011;16845;48.670;9.000;2023-05-09T07:04:43;15.73;;;12.35;;
30000;SDS011;16845;48.670;9.000;2023-05-09T07:07:09;26.92;;;13.48;;
30000;SDS011;16845;48.670;9.000;2023-05-09T07:09:36;15.55;;;12.07;;
30000;SDS011;16845;48.670;9.000;2023-05-09T07:12:03;15.68;;;11.57;;
30000;SDS011;16845;48.670;9.000;2023-05-09T07:14:31;15.00;;;11.45;;
30000;SDS011;16845;48.670;9.000;2023-05-09T07:16:57;12.32;;;10.40;;
30000;SDS011;16845;48.670;9.000;2023-05-09T07:19:39;12.23;;;9.48;;
30000;SDS011;16845;48.670;9.000;2023-05-09T07:22:05;13.90;;;10.73;;
30000;SDS011;16845;48.670;9.000;2023-05-09T07:24:32;14.75;;;10.15;;
30000;SDS011;16845;48.670;9.000;2023-05-09T07:27:00;12.30;;;8.57;;
30000;SDS011;16845;48.670;9.000;2023-05-09T07:29:27;11.27;;;10.05;;
30000;SDS011;16845;48.670;9.000;2023-05-09T07:31:55;11.40;;;8.90;;
30000;SDS011;16845;48.670;9.000;2023-05-09T07:34:31;12.05;;;8.93;;
30000;SDS011;16845;48.670;9.000;2023-05-09T07:36:57;9.75;;;8.32;;
30000;SDS011;16845;48.670;9.000;2023-05-09T07:39:24;8.48;;;7.60;;
30000;SDS011;16845;48.670;9.000;2023-05-09T07:41:50;9.43;;;8.00;;
30000;SDS011;16845;48.670;9.000;2023-05-09T07:44:16;10.23;;;7.65;;
30000;SDS011;16845;48.670;9.000;2023-05-09T07:46:43;11.80;;;8.80;;
30000;SDS011;16845;48.670;9.000;2023-05-09T07:49:11;11.85;;;8.60;;
30000;SDS011;16845;48.670;9.000;2023-05-09T07:51:37;19.10;;;10.65;;
30000;SDS011;16845;48.670;9.000;2023-05-09T07:54:04;10.02;;;8.77;;
30000;SDS011;16845;48.670;9.000;2023-05-09T07:56:30;9.02;;;8.10;;
30000;SDS011;16845;48.670;9.000;2023-05-09T07:58:57;13.23;;;8.57;;
30000;SDS011;16845;48.670;9.000;2023-05-09T08:01:23;14.07;;;10.02;;
30000;SDS011;16845;48.670;9.000;2023-05-09T08:03:49;13.70;;;10.15;;
30000;SDS011;16845;48.670;9.000;2023-05-09T08:06:17;12.27;;;9.30;;
30000;SDS011;16845;48.670;9.000;2023-05-09T08:08:44;9.48;;;8.48;;
30000;SDS011;16845;48.670;9.000;2023-05-09T08:11:10;13.20;;;7.90;;
30000;SDS011;16845;48.670;9.000;2023-05-09T08:13:37;8.30;;;7.45;;
30000;SDS011;16845;48.670;9.000;2023-05-09T08:16:03;8.82;;;6.88;;
30000;SDS011;16845;48.670;9.000;2023-05-09T08:18:30;7.75;;;6.95;;
30000;SDS011;16845;48.670;9.000;2023-05-09T08:20:56;7.30;;;6.43;;
30000;SDS011;16845;48.670;9.000;2023-05-09T08:23:24;9.45;;;5.95;;
30000;SDS011;16845;48.670;9.000;2023-05-09T08:25:51;10.00;;;7.13;;
30000;SDS011;16845;48.670;9.000;2023-05-09T08:28:18;11.95;;;7.80;;
30000;SDS011;16845;48.670;9.000;2023-05-09T08:30:44;7.85;;;6.82;;
30000;SDS011;16845;48.670;9.000;2023-05-09T08:33:11;7.07;;;6.38;;
30000;SDS011;16845;48.670;9.000;2023-05-09T08:35:37;8.52;;;5.72;;
30000;SDS011;16845;48.670;9.000;2023-05-09T08:38:04;7.18;;;6.47;;
30000;SDS011;16845;48.670;9.000;2023-05-09T08:40:32;4.63;;;3.90;;
30000;SDS011;16845;48.670;9.000;2023-05-09T08:43:00;16.02;;;5.80;;
30000;SDS011;16845;48.670;9.000;2023-05-09T08:45:28;6.05;;;5.22;;
30000;SDS011;16845;48.670;9.000;2023-05-09T08:47:56;6.35;;;5.25;;
30000;SDS011;16845;48.670;9.000;2023-05-09T08:52:50;7.90;;;5.82;;
30000;SDS011;16845;48.670;9.000;2023-05-09T08:57:44;10.15;;;5.70;;
30000;SDS011;16845;48.670;9.000;2023-05-09T09:00:11;6.22;;;5.28;;
30000;SDS011;16845;48.670;9.000;2023-05-09T09:02:43;7.15;;;5.00;;
30000;SDS011;16845;48.670;9.000;2023-05-09T09:05:11;5.45;;;4.57;;
30000;SDS011;16845;48.670;9.000;2023-05-09T09:07:54;6.38;;;4.88;;
30000;SDS011;16845;48.670;9.000;2023-05-09T09:12:49;7.93;;;5.88;;
30000;SDS011;16845;48.670;9.000;2023-05-09T09:15:17;7.15;;;5.85;;
30000;SDS011;16845;48.670;9.000;2023-05-09T09:17:45;5.47;;;4.95;;
30000;SDS011;16845;48.670;9.000;2023-05-09T09:20:15;6.85;;;4.80;;
30000;SDS011;16845;48.670;9.000;2023-05-09T09:22:44;5.25;;;4.75;;
30000;SDS011;16845;48.670;9.000;2023-05-09T09:25:13;8.68;;;5.47;;
30000;SDS011;16845;48.670;9.000;2023-05-09T09:27:39;9.50;;;6.43;;
30000;SDS011;16845;48.670;9.000;2023-05-09T09:30:08;7.03;;;6.30;;
30000;SDS011;16845;48.670;9.000;2023-05-09T09:32:35;9.52;;;6.10;;
30000;SDS011;16845;48.670;9.000;2023-05-09T09:37:30;7.53;;;5.43;;
30000;SDS011;16845;48.670;9.000;2023-05-09T09:39:58;5.45;;;4.72;;
30000;SDS011;16845;48.670;9.000;2023-05-09T09:42:24;11.63;;;4.93;;
30000;SDS011;16845;48.670;9.000;2023-05-09T09:44:54;6.97;;;4.55;;
30000;SDS011;16845;48.670;9.000;2023-05-09T09:47:30;9.93;;;4.78;;
30000;SDS011;16845;48.670;9.000;2023-05-09T09:49:57;7.32;;;4.82;;
30000;SDS011;16845;48.670;9.000;2023-05-09T09:52:34;5.80;;;4.85;;
30000;SDS011;16845;48.670;9.000;2023-05-09T09:55:00;6.10;;;5.30;;
30000;SDS011;16845;48.670;9.000;2023-05-09T09:57:33;6.90;;;6.20;;
30000;SDS011;16845;48.670;9.000;2023-05-09T09:59:59;8.60;;;6.45;;
30000;SDS011;16845;48.670;9.000;2023-05-09T10:02:26;8.50;;;6.30;;
30000;SDS011;16845;48.670;9.000;2023-05-09T10:04:54;7.22;;;5.95;;
30000;SDS011;16845;48.670;9.000;2023-05-09T10:07:21;12.38;;;6.57;;
30000;SDS011;16845;48.670;9.000;2023-05-09T10:09:47;11.43;;;6.75;;
30000;SDS011;16845;48.670;9.000;2023-05-09T10:12:14;7.60;;;6.63;;
30000;SDS011;16845;48.670;9.000;2023-05-09T10:14:41;8.95;;;6.45;;
30000;SDS011;16845;48.670;9.000;2023-05-09T10:17:08;9.43;;;6.93;;
30000;SDS011;16845;48.670;9.000;2023-05-09T10:19:38;9.48;;;7.57;;
30000;SDS011;16845;48.670;9.000;2023-05-09T10:22:10;10.45;;;6.65;;
30000;SDS011;16845;48.670;9.000;2023-05-09T10:24:41;6.25;;;5.45;;
30000;SDS011;16845;48.670;9.000;2023-05-09T10:27:13;8.93;;;5.68;;
30000;SDS011;16845;48.670;9.000;2023-05-09T10:29:43;7.38;;;5.07;;
30000;SDS011;16845;48.670;9.000;2023-05-09T10:32:14;6.25;;;4.40;;
30000;SDS011;16845;48.670;9.000;2023-05-09T10:34:43;7.40;;;5.60;;
30000;SDS011;16845;48.670;9.000;2023-05-09T10:37:15;8.80;;;4.15;;
30000;SDS011;16845;48.670;9.000;2023-05-09T10:39:42;8.52;;;4.90;;
30000;SDS011;16845;48.670;9.000;2023-05-09T10:42:09;7.20;;;4.93;;
30000;SDS011;16845;48.670;9.000;2023-05-09T10:44:38;4.50;;;4.10;;
30000;SDS011;16845;48.670;9.000;2023-05-09T10:47:05;5.95;;;3.05;;
30000;SDS011;16845;48.670;9.000;2023-05-09T10:49:32;3.88;;;2.60;;
30000;SDS011;16845;48.670;9.000;2023-05-09T10:52:07;4.82;;;3.33;;
30000;SDS011;16845;48.670;9.000;2023-05-09T10:55:20;3.53;;;3.22;;
30000;SDS011;16845;48.670;9.000;2023-05-09T10:57:49;3.05;;;2.75;;
30000;SDS011;16845;48.670;9.000;2023-05-09T11:00:21;6.03;;;2.90;;
30000;SDS011;16845;48.670;9.000;2023-05-09T11:03:04;4.18;;;3.03;;
30000;SDS011;16845;48.670;9.000;2023-05-09T11:05:37;7.32;;;2.80;;
30000;SDS011;16845;48.670;9.000;2023-05-09T11:08:16;3.33;;;2.67;;
30000;SDS011;16845;48.670;9.000;2023-05-09T11:10:45;3.53;;;3.00;;
30000;SDS011;16845;48.670;9.000;2023-05-09T11:13:12;7.40;;;2.90;;
30000;SDS011;16845;48.670;9.000;2023-05-09T11:15:47;5.13;;;3.20;;
30000;SDS011;16845;48.670;9.000;2023-05-09T11:18:15;4.22;;;3.17;;
30000;SDS011;16845;48.670;9.000;2023-05-09T11:20:44;3.50;;;2.72;;
30000;SDS011;16845;48.670;9.000;2023-05-09T11:23:14;7.20;;;2.55;;
30000;SDS011;16845;48.670;9.000;2023-05-09T11:25:41;2.95;;;2.65;;
30000;SDS011;16845;48.670;9.000;2023-05-09T11:28:14;3.55;;;3.25;;
30000;SDS011;16845;48.670;9.000;2023-05-09T11:30:51;4.07;;;3.45;;
30000;SDS011;16845;48.670;9.000;2023-05-09T11:33:20;4.07;;;3.42;;
30000;SDS011;16845;48.670;9.000;2023-05-09T11:38:39;5.38;;;3.08;;
30000;SDS011;16845;48.670;9.000;2023-05-09T11:41:06;3.65;;;2.90;;
30000;SDS011;16845;48.670;9.000;2023-05-09T11:43:35;2.72;;;2.53;;
30000;SDS011;16845;48.670;9.000;2023-05-09T11:46:02;3.60;;;3.28;;
30000;SDS011;16845;48.670;9.000;2023-05-09T11:48:28;3.50;;;3.20;;
30000;SDS011;16845;48.670;9.000;2023-05-09T11:50:55;4.20;;;3.30;;
30000;SDS011;16845;48.670;9.000;2023-05-09T11:53:22;6.50;;;3.65;;
30000;SDS011;16845;48.670;9.000;2023-05-09T11:55:49;5.53;;;3.40;;
30000;SDS011;16845;48.670;9.000;2023-05-09T11:58:15;12.00;;;3.53;;
30000;SDS011;16845;48.670;9.000;2023-05-09T12:00:44;3.73;;;2.90;;
30000;SDS011;16845;48.670;9.000;2023-05-09T12:03:11;3.72;;;2.80;;
30000;SDS011;16845;48.670;9.000;2023-05-09T12:05:38;5.13;;;2.85;;
30000;SDS011;16845;48.670;9.000;2023-05-09T12:08:05;3.33;;;3.03;;
30000;SDS011;16845;48.670;9.000;2023-05-09T12:10:31;5.35;;;3.00;;
30000;SDS011;16845;48.670;9.000;2023-05-09T12:13:02;4.20;;;2.88;;
30000;SDS011;16845;48.670;9.000;2023-05-09T12:15:29;3.73;;;2.77;;
30000;SDS011;16845;48.670;9.000;2023-05-09T12:18:03;3.63;;;3.33;;
30000;SDS011;16845;48.670;9.000;2023-05-09T12:20:38;4.63;;;2.70;;
30000;SDS011;16845;48.670;9.000;2023-05-09T12:23:06;4.40;;;3.08;;
30000;SDS011;16845;48.670;9.000;2023-05-09T12:25:32;2.85;;;2.55;;
30000;SDS011;16845;48.670;9.000;2023-05-09T12:27:59;5.10;;;3.17;;
30000;SDS011;16845;48.670;9.000;2023-05-09T12:30:25;7.00;;;3.33;;
30000;SDS011;16845;48.670;9.000;2023-05-09T12:32:52;4.40;;;2.87;;
30000;SDS011;16845;48.670;9.000;2023-05-09T12:35:20;3.72;;;3.25;;
30000;SDS011;16845;48.670;9.000;2023-05-09T12:37:53;3.25;;;2.95;;
30000;SDS011;16845;48.670;9.000;2023-05-09T12:40:20;3.47;;;2.88;;
30000;SDS011;16845;48.670;9.000;2023-05-09T12:42:46;4.40;;;2.22;;
30000;SDS011;16845;48.670;9.000;2023-05-09T12:45:13;6.47;;;1.37;;
30000;SDS011;16845;48.670;9.000;2023-05-09T12:47:40;3.42;;;2.08;;
30000;SDS011;16845;48.670;9.000;2023-05-09T12:50:08;2.30;;;2.10;;
30000;SDS011;16845;48.670;9.000;2023-05-09T12:52:37;2.40;;;2.13;;
30000;SDS011;16845;48.670;9.000;2023-05-09T12:55:23;5.10;;;2.30;;
30000;SDS011;16845;48.670;9.000;2023-05-09T12:57:55;2.87;;;2.33;;
30000;SDS011;16845;48.670;9.000;2023-05-09T13:00:23;7.47;;;2.17;;
30000;SDS011;16845;48.670;9.000;2023-05-09T13:02:50;1.85;;;1.73;;
30000;SDS011;16845;48.670;9.000;2023-05-09T13:05:17;1.93;;;1.33;;
30000;SDS011;16845;48.670;9.000;2023-05-09T13:07:47;1.80;;;1.58;;
30000;SDS011;16845;48.670;9.000;2023-05-09T13:10:14;2.10;;;1.98;;
30000;SDS011;16845;48.670;9.000;2023-05-09T13:12:41;2.30;;;1.50;;
30000;SDS011;16845;48.670;9.000;2023-05-09T13:15:08;2.00;;;1.80;;
30000;SDS011;16845;48.670;9.000;2023-05-09T13:17:36;5.47;;;1.75;;
30000;SDS011;16845;48.670;9.000;2023-05-09T13:20:02;2.28;;;2.05;;
30000;SDS011;16845;48.670;9.000;2023-05-09T13:22:29;3.10;;;1.95;;
30000;SDS011;16845;48.670;9.000;2023-05-09T13:24:57;3.90;;;1.73;;
30000;SDS011;16845;48.670;9.000;2023-05-09T13:27:24;2.95;;;1.80;;
30000;SDS011;16845;48.670;9.000;2023-05-09T13:29:50;1.90;;;1.70;;
30000;SDS011;16845;48.670;9.000;2023-05-09T13:32:17;3.47;;;1.43;;
30000;SDS011;16845;48.670;9.000;2023-05-09T13:34:43;2.60;;;1.80;;
30000;SDS011;16845;48.670;9.000;2023-05-09T13:37:09;3.25;;;1.88;;
30000;SDS011;16845;48.670;9.000;2023-05-09T13:39:36;3.25;;;2.30;;
30000;SDS011;16845;48.670;9.000;2023-05-09T13:42:04;2.70;;;2.20;;
30000;SDS011;16845;48.670;9.000;2023-05-09T13:44:30;2.05;;;1.95;;
30000;SDS011;16845;48.670;9.000;2023-05-09T13:46:57;2.92;;;1.83;;
30000;SDS011;16845;48.670;9.000;2023-05-09T13:49:23;3.67;;;1.77;;
30000;SDS011;16845;48.670;9.000;2023-05-09T13:51:50;2.17;;;1.60;;
30000;SDS011;16845;48.670;9.000;2023-05-09T13:54:16;3.53;;;1.45;;
30000;SDS011;16845;48.670;9.000;2023-05-09T13:56:43;2.13;;;1.50;;
30000;SDS011;16845;48.670;9.000;2023-05-09T13:59:10;1.70;;;1.60;;
30000;SDS011;16845;48.670;9.000;2023-05-09T14:01:37;8.43;;;1.80;;
30000;SDS011;16845;48.670;9.000;2023-05-09T14:04:03;2.42;;;1.90;;
30000;SDS011;16845;48.670;9.000;2023-05-09T14:06:30;1.57;;;1.17;;
30000;SDS011;16845;48.670;9.000;2023-05-09T14:08:56;4.00;;;1.85;;
30000;SDS011;16845;48.670;9.000;2023-05-09T14:11:23;5.15;;;1.95;;
30000;SDS011;16845;48.670;9.000;2023-05-09T14:13:50;8.38;;;1.92;;
30000;SDS011;16845;48.670;9.000;2023-05-09T14:16:18;2.57;;;1.67;;
30000;SDS011;16845;48.670;9.000;2023-05-09T14:18:45;2.65;;;2.10;;
30000;SDS011;16845;48.670;9.000;2023-05-09T14:21:12;2.75;;;2.08;;
30000;SDS011;16845;48.670;9.000;2023-05-09T14:23:40;2.03;;;1.83;;
30000;SDS011;16845;48.670;9.000;2023-05-09T14:26:07;2.78;;;1.80;;
30000;SDS011;16845;48.670;9.000;2023-05-09T14:28:33;2.67;;;2.20;;
30000;SDS011;16845;48.670;9.000;2023-05-09T14:31:00;3.67;;;2.20;;
30000;SDS011;16845;48.670;9.000;2023-05-09T14:33:28;2.83;;;2.00;;
30000;SDS011;16845;48.670;9.000;2023-05-09T14:35:54;6.95;;;2.08;;
30000;SDS011;16845;48.670;9.000;2023-05-09T14:38:20;5.07;;;2.00;;
30000;SDS011;16845;48.670;9.000;2023-05-09T14:40:47;1.93;;;1.67;;
30000;SDS011;16845;48.670;9.000;2023-05-09T14:43:13;2.03;;;1.90;;
30000;SDS011;16845;48.670;9.000;2023-05-09T14:45:40;2.38;;;2.17;;
30000;SDS011;16845;48.670;9.000;2023-05-09T14:48:06;6.10;;;2.35;;
30000;SDS011;16845;48.670;9.000;2023-05-09T14:50:34;6.10;;;2.05;;
30000;SDS011;16845;48.670;9.000;2023-05-09T14:53:01;2.55;;;2.20;;